British Gannet — MGRX9 — position and weather

sailwx.info

Track history (hours):
 
Tides and Currents Weather Stations Pressure Air Temp Water Temp Dewpoint Dewpoint Depression Visibility Wind Speed Wind Dir Waves Ship Positions

British Gannet

Last reported at 2015-Apr-26 19:11 UTC. Time now 2015-May-04 23:09 UTC.
Position N 26°21' E 056°01'.
Warning: this ship's position is 8 days out of date.

Length 233 m; draft 13.1 m.

Type: Tanker. MMSI: 232150000.

Date/timePositionNaut miles runAvg speedWind from/ knotsBaromVisibWave heightAir tempDewpointWater temp
2015-Apr-26 19:11N 26°21' E 056°01'1513.8
2015-Apr-26 18:06N 26°17' E 055°45'713.6
2015-Apr-26 17:33N 26°14' E 055°38'1413.6
2015-Apr-26 16:33N 26°09' E 055°24'1313.1
2015-Apr-26 15:33N 26°07' E 055°09'132 2.7
2015-Apr-24 14:20N 24°59' E 053°03'1113.4
2015-Apr-24 13:31N 25°02' E 053°15'  
2015-Apr-18 13:21N 07°03' E 077°13'1113.7
2015-Apr-18 12:33N 06°54' E 077°20'1413.7
2015-Apr-18 11:31N 06°44' E 077°29'1313.6
2015-Apr-18 10:33N 06°34' E 077°38'1613.4
2015-Apr-18 09:20N 06°21' E 077°48'1013.3
2015-Apr-18 08:33N 06°13' E 077°55'3011.8
2015-Apr-18 06:00N 05°48' E 078°12'   310 / 141010.610.8 0.531.024.228.0
Track history (hours):
 
Tides and Currents Weather Stations Pressure Air Temp Water Temp Dewpoint Dewpoint Depression Visibility Wind Speed Wind Dir Waves Ship Positions

British Gannet

Last reported at 2015-Apr-26 19:11 UTC. Time now 2015-May-04 23:09 UTC.
Position N 26°21' E 056°01'.
Warning: this ship's position is 8 days out of date.

Length 233 m; draft 13.1 m.

Type: Tanker. MMSI: 232150000.

Date/timePositionNaut miles runAvg speedWind from/ knotsBaromVisibWave heightAir tempDewpointWater temp
2015-Apr-26 19:11N 26°21' E 056°01'1513.8
2015-Apr-26 18:06N 26°17' E 055°45'713.6
2015-Apr-26 17:33N 26°14' E 055°38'1413.6
2015-Apr-26 16:33N 26°09' E 055°24'1313.1
2015-Apr-26 15:33N 26°07' E 055°09'132 2.7
2015-Apr-24 14:20N 24°59' E 053°03'1113.4
2015-Apr-24 13:31N 25°02' E 053°15'  
2015-Apr-18 13:21N 07°03' E 077°13'1113.7
2015-Apr-18 12:33N 06°54' E 077°20'1413.7
2015-Apr-18 11:31N 06°44' E 077°29'1313.6
2015-Apr-18 10:33N 06°34' E 077°38'1613.4
2015-Apr-18 09:20N 06°21' E 077°48'1013.3
2015-Apr-18 08:33N 06°13' E 077°55'3011.8
2015-Apr-18 06:00N 05°48' E 078°12'   310 / 141010.610.8 0.531.024.228.0

Dump ship's entire track history